sensor_id;sensor_type;location;lat;lon;timestamp;pressure;altitude;pressure_sealevel;temperature;humidity
76987;BME280;65922;50.086;8.598;2023-01-28T00:00:14;101610;;;1.8;84.3
76987;BME280;65922;50.086;8.598;2023-01-28T00:01:14;101610;;;1.9;84
76987;BME280;65922;50.086;8.598;2023-01-28T00:02:13;101610;;;1.8;84.1
76987;BME280;65922;50.086;8.598;2023-01-28T00:03:13;101610;;;1.9;84.2
76987;BME280;65922;50.086;8.598;2023-01-28T00:04:14;101610;;;1.9;84.1
76987;BME280;65922;50.086;8.598;2023-01-28T00:05:13;101610;;;1.7;84.5
76987;BME280;65922;50.086;8.598;2023-01-28T00:06:14;101620;;;1.7;84.8
76987;BME280;65922;50.086;8.598;2023-01-28T00:07:13;101610;;;1.8;84.7
76987;BME280;65922;50.086;8.598;2023-01-28T00:08:13;101610;;;1.9;84.1
76987;BME280;65922;50.086;8.598;2023-01-28T00:09:13;101600;;;1.8;84.2
76987;BME280;65922;50.086;8.598;2023-01-28T00:10:14;101600;;;1.8;84.5
76987;BME280;65922;50.086;8.598;2023-01-28T00:11:13;101610;;;1.8;84.4
76987;BME280;65922;50.086;8.598;2023-01-28T00:12:13;101610;;;1.8;84.1
76987;BME280;65922;50.086;8.598;2023-01-28T00:13:13;101600;;;1.9;83.9
76987;BME280;65922;50.086;8.598;2023-01-28T00:14:13;101600;;;1.9;83.6
76987;BME280;65922;50.086;8.598;2023-01-28T00:15:13;101610;;;1.9;83.6
76987;BME280;65922;50.086;8.598;2023-01-28T00:16:16;101610;;;1.8;84
76987;BME280;65922;50.086;8.598;2023-01-28T00:17:13;101600;;;1.7;84.2
76987;BME280;65922;50.086;8.598;2023-01-28T00:18:13;101600;;;1.8;84
76987;BME280;65922;50.086;8.598;2023-01-28T00:19:13;101610;;;1.8;84
76987;BME280;65922;50.086;8.598;2023-01-28T00:20:14;101600;;;1.7;84.2
76987;BME280;65922;50.086;8.598;2023-01-28T00:21:14;101600;;;1.7;84.5
76987;BME280;65922;50.086;8.598;2023-01-28T00:22:13;101600;;;1.7;84.3
76987;BME280;65922;50.086;8.598;2023-01-28T00:23:13;101600;;;1.8;84.1
76987;BME280;65922;50.086;8.598;2023-01-28T00:24:13;101600;;;1.8;84
76987;BME280;65922;50.086;8.598;2023-01-28T00:25:13;101600;;;1.7;84.2
76987;BME280;65922;50.086;8.598;2023-01-28T00:26:14;101600;;;1.8;83.9
76987;BME280;65922;50.086;8.598;2023-01-28T00:27:13;101600;;;1.8;83.8
76987;BME280;65922;50.086;8.598;2023-01-28T00:28:13;101600;;;1.8;83.7
76987;BME280;65922;50.086;8.598;2023-01-28T00:29:13;101600;;;1.7;84
76987;BME280;65922;50.086;8.598;2023-01-28T00:30:13;101610;;;1.7;84.1
76987;BME280;65922;50.086;8.598;2023-01-28T00:31:14;101590;;;1.7;84.2
76987;BME280;65922;50.086;8.598;2023-01-28T00:32:14;101590;;;1.5;84.5
76987;BME280;65922;50.086;8.598;2023-01-28T00:33:13;101600;;;1.6;84.7
76987;BME280;65922;50.086;8.598;2023-01-28T00:34:13;101600;;;1.6;84.6
76987;BME280;65922;50.086;8.598;2023-01-28T00:35:13;101590;;;1.6;84.6
76987;BME280;65922;50.086;8.598;2023-01-28T00:36:14;101600;;;1.7;84.4
76987;BME280;65922;50.086;8.598;2023-01-28T00:37:13;101600;;;1.8;84
76987;BME280;65922;50.086;8.598;2023-01-28T00:38:13;101600;;;1.8;83.7
76987;BME280;65922;50.086;8.598;2023-01-28T00:39:13;101600;;;1.8;83.9
76987;BME280;65922;50.086;8.598;2023-01-28T00:40:14;101600;;;1.8;83.5
76987;BME280;65922;50.086;8.598;2023-01-28T00:41:14;101600;;;1.8;83.7
76987;BME280;65922;50.086;8.598;2023-01-28T00:42:14;101600;;;1.8;83.7
76987;BME280;65922;50.086;8.598;2023-01-28T00:43:13;101600;;;1.8;83.6
76987;BME280;65922;50.086;8.598;2023-01-28T00:44:13;101600;;;1.8;83.9
76987;BME280;65922;50.086;8.598;2023-01-28T00:45:13;101610;;;1.8;83.8
76987;BME280;65922;50.086;8.598;2023-01-28T00:46:14;101610;;;1.8;83.5
76987;BME280;65922;50.086;8.598;2023-01-28T00:47:13;101610;;;1.9;83.5
76987;BME280;65922;50.086;8.598;2023-01-28T00:48:13;101600;;;1.8;83.8
76987;BME280;65922;50.086;8.598;2023-01-28T00:49:13;101610;;;1.8;84.1
76987;BME280;65922;50.086;8.598;2023-01-28T00:50:13;101610;;;1.7;84.2
76987;BME280;65922;50.086;8.598;2023-01-28T00:51:14;101610;;;1.8;84.1
76987;BME280;65922;50.086;8.598;2023-01-28T00:52:13;101600;;;2;83.2
76987;BME280;65922;50.086;8.598;2023-01-28T00:53:13;101600;;;1.9;83.7
76987;BME280;65922;50.086;8.598;2023-01-28T00:54:13;101610;;;1.8;83.7
76987;BME280;65922;50.086;8.598;2023-01-28T00:55:13;101610;;;1.7;84.1
76987;BME280;65922;50.086;8.598;2023-01-28T00:56:14;101620;;;1.8;84
76987;BME280;65922;50.086;8.598;2023-01-28T00:57:13;101610;;;1.9;83.6
76987;BME280;65922;50.086;8.598;2023-01-28T00:58:13;101610;;;1.9;83.5
76987;BME280;65922;50.086;8.598;2023-01-28T00:59:13;101610;;;1.8;83.8
76987;BME280;65922;50.086;8.598;2023-01-28T01:01:14;101600;;;1.7;84.4
76987;BME280;65922;50.086;8.598;2023-01-28T01:02:13;101610;;;1.7;84.1
76987;BME280;65922;50.086;8.598;2023-01-28T01:03:13;101610;;;1.7;84
76987;BME280;65922;50.086;8.598;2023-01-28T01:04:13;101610;;;1.8;83.8
76987;BME280;65922;50.086;8.598;2023-01-28T01:05:13;101610;;;1.7;83.9
76987;BME280;65922;50.086;8.598;2023-01-28T01:06:14;101610;;;1.7;84.1
76987;BME280;65922;50.086;8.598;2023-01-28T01:07:13;101610;;;1.7;84.2
76987;BME280;65922;50.086;8.598;2023-01-28T01:08:13;101610;;;1.6;84.2
76987;BME280;65922;50.086;8.598;2023-01-28T01:09:13;101610;;;1.6;84.3
76987;BME280;65922;50.086;8.598;2023-01-28T01:10:14;101610;;;1.7;84.2
76987;BME280;65922;50.086;8.598;2023-01-28T01:11:13;101610;;;1.7;84
76987;BME280;65922;50.086;8.598;2023-01-28T01:12:14;101610;;;1.5;84.5
76987;BME280;65922;50.086;8.598;2023-01-28T01:13:13;101610;;;1.6;84.5
76987;BME280;65922;50.086;8.598;2023-01-28T01:14:13;101610;;;1.5;84.6
76987;BME280;65922;50.086;8.598;2023-01-28T01:15:13;101610;;;1.5;84.5
76987;BME280;65922;50.086;8.598;2023-01-28T01:16:14;101610;;;1.5;84.5
76987;BME280;65922;50.086;8.598;2023-01-28T01:17:13;101610;;;1.4;84.7
76987;BME280;65922;50.086;8.598;2023-01-28T01:18:13;101610;;;1.5;84.7
76987;BME280;65922;50.086;8.598;2023-01-28T01:19:13;101610;;;1.6;84.6
76987;BME280;65922;50.086;8.598;2023-01-28T01:20:14;101620;;;1.6;84.4
76987;BME280;65922;50.086;8.598;2023-01-28T01:21:14;101620;;;1.6;84.3
76987;BME280;65922;50.086;8.598;2023-01-28T01:22:13;101620;;;1.6;84.4
76987;BME280;65922;50.086;8.598;2023-01-28T01:23:13;101620;;;1.6;84.4
76987;BME280;65922;50.086;8.598;2023-01-28T01:24:13;101610;;;1.7;84.1
76987;BME280;65922;50.086;8.598;2023-01-28T01:25:14;101630;;;1.8;83.7
76987;BME280;65922;50.086;8.598;2023-01-28T01:26:14;101620;;;1.8;83.5
76987;BME280;65922;50.086;8.598;2023-01-28T01:27:13;101620;;;1.8;83.4
76987;BME280;65922;50.086;8.598;2023-01-28T01:28:14;101630;;;1.8;83.5
76987;BME280;65922;50.086;8.598;2023-01-28T01:29:13;101630;;;1.8;83.4
76987;BME280;65922;50.086;8.598;2023-01-28T01:30:14;101630;;;1.8;83.3
76987;BME280;65922;50.086;8.598;2023-01-28T01:31:14;101620;;;1.8;83.3
76987;BME280;65922;50.086;8.598;2023-01-28T01:32:13;101610;;;1.8;83.4
76987;BME280;65922;50.086;8.598;2023-01-28T01:33:13;101620;;;1.8;83.5
76987;BME280;65922;50.086;8.598;2023-01-28T01:34:13;101620;;;1.8;83.6
76987;BME280;65922;50.086;8.598;2023-01-28T01:35:13;101620;;;1.8;83.5
76987;BME280;65922;50.086;8.598;2023-01-28T01:36:14;101620;;;1.8;83.6
76987;BME280;65922;50.086;8.598;2023-01-28T01:37:13;101630;;;1.8;83.8
76987;BME280;65922;50.086;8.598;2023-01-28T01:38:13;101630;;;1.9;83.1
76987;BME280;65922;50.086;8.598;2023-01-28T01:39:13;101630;;;1.9;83.4
76987;BME280;65922;50.086;8.598;2023-01-28T01:40:13;101640;;;1.9;82.9
76987;BME280;65922;50.086;8.598;2023-01-28T01:41:23;101630;;;1.9;83.1
76987;BME280;65922;50.086;8.598;2023-01-28T01:42:13;101630;;;1.8;83.3
76987;BME280;65922;50.086;8.598;2023-01-28T01:43:14;101630;;;1.8;83.4
76987;BME280;65922;50.086;8.598;2023-01-28T01:44:51;101630;;;1.9;83.2
76987;BME280;65922;50.086;8.598;2023-01-28T01:45:14;101640;;;1.9;83.1
76987;BME280;65922;50.086;8.598;2023-01-28T01:46:14;101640;;;1.9;83.2
76987;BME280;65922;50.086;8.598;2023-01-28T01:47:13;101640;;;1.9;83.2
76987;BME280;65922;50.086;8.598;2023-01-28T01:48:14;101630;;;1.9;83.1
76987;BME280;65922;50.086;8.598;2023-01-28T01:49:14;101640;;;1.8;83.3
76987;BME280;65922;50.086;8.598;2023-01-28T01:50:16;101640;;;1.8;83.4
76987;BME280;65922;50.086;8.598;2023-01-28T01:51:14;101640;;;1.9;83
76987;BME280;65922;50.086;8.598;2023-01-28T01:52:14;101640;;;1.9;83.2
76987;BME280;65922;50.086;8.598;2023-01-28T01:53:15;101640;;;1.8;83.3
76987;BME280;65922;50.086;8.598;2023-01-28T01:54:13;101640;;;1.8;83.6
76987;BME280;65922;50.086;8.598;2023-01-28T01:55:15;101640;;;1.8;83.5
76987;BME280;65922;50.086;8.598;2023-01-28T01:56:15;101640;;;1.8;83.5
76987;BME280;65922;50.086;8.598;2023-01-28T01:57:15;101650;;;1.9;83.4
76987;BME280;65922;50.086;8.598;2023-01-28T01:58:15;101640;;;1.9;82.8
76987;BME280;65922;50.086;8.598;2023-01-28T01:59:14;101640;;;1.8;83
76987;BME280;65922;50.086;8.598;2023-01-28T02:00:14;101650;;;1.8;83.1
76987;BME280;65922;50.086;8.598;2023-01-28T02:01:13;101640;;;1.9;82.8
76987;BME280;65922;50.086;8.598;2023-01-28T02:02:13;101630;;;1.8;83.1
76987;BME280;65922;50.086;8.598;2023-01-28T02:03:13;101640;;;1.8;83.3
76987;BME280;65922;50.086;8.598;2023-01-28T02:04:14;101640;;;1.8;83.2
76987;BME280;65922;50.086;8.598;2023-01-28T02:05:14;101640;;;1.8;83.1
76987;BME280;65922;50.086;8.598;2023-01-28T02:06:13;101640;;;1.8;83.3
76987;BME280;65922;50.086;8.598;2023-01-28T02:07:14;101640;;;1.8;83.3
76987;BME280;65922;50.086;8.598;2023-01-28T02:08:13;101640;;;1.8;83.5
76987;BME280;65922;50.086;8.598;2023-01-28T02:09:22;101640;;;1.8;83.5
76987;BME280;65922;50.086;8.598;2023-01-28T02:10:13;101640;;;1.8;83.4
76987;BME280;65922;50.086;8.598;2023-01-28T02:11:13;101640;;;1.8;83.6
76987;BME280;65922;50.086;8.598;2023-01-28T02:12:14;101640;;;1.8;83.9
76987;BME280;65922;50.086;8.598;2023-01-28T02:13:13;101650;;;1.8;83.9
76987;BME280;65922;50.086;8.598;2023-01-28T02:14:13;101650;;;1.8;83.9
76987;BME280;65922;50.086;8.598;2023-01-28T02:15:15;101640;;;1.7;83.9
76987;BME280;65922;50.086;8.598;2023-01-28T02:16:13;101640;;;1.8;84
76987;BME280;65922;50.086;8.598;2023-01-28T02:17:14;101650;;;1.8;83.8
76987;BME280;65922;50.086;8.598;2023-01-28T02:18:13;101640;;;1.8;83.7
76987;BME280;65922;50.086;8.598;2023-01-28T02:19:13;101640;;;1.8;83.4
76987;BME280;65922;50.086;8.598;2023-01-28T02:20:15;101640;;;1.8;83.7
76987;BME280;65922;50.086;8.598;2023-01-28T02:21:27;101640;;;1.7;83.9
76987;BME280;65922;50.086;8.598;2023-01-28T02:22:18;101640;;;1.7;84.2
76987;BME280;65922;50.086;8.598;2023-01-28T02:23:18;101640;;;1.7;84.2
76987;BME280;65922;50.086;8.598;2023-01-28T02:24:18;101640;;;1.8;84
76987;BME280;65922;50.086;8.598;2023-01-28T02:25:18;101630;;;1.7;84.5
76987;BME280;65922;50.086;8.598;2023-01-28T02:26:23;101640;;;1.7;84.1
76987;BME280;65922;50.086;8.598;2023-01-28T02:27:16;101640;;;1.7;84.2
76987;BME280;65922;50.086;8.598;2023-01-28T02:28:16;101640;;;1.7;84.5
76987;BME280;65922;50.086;8.598;2023-01-28T02:29:14;101640;;;1.7;84.7
76987;BME280;65922;50.086;8.598;2023-01-28T02:30:14;101640;;;1.7;85.1
76987;BME280;65922;50.086;8.598;2023-01-28T02:31:14;101630;;;1.7;84.7
76987;BME280;65922;50.086;8.598;2023-01-28T02:32:14;101650;;;1.7;84.8
76987;BME280;65922;50.086;8.598;2023-01-28T02:33:15;101640;;;1.7;84.6
76987;BME280;65922;50.086;8.598;2023-01-28T02:34:16;101640;;;1.6;84.9
76987;BME280;65922;50.086;8.598;2023-01-28T02:35:14;101650;;;1.6;84.9
76987;BME280;65922;50.086;8.598;2023-01-28T02:36:16;101650;;;1.7;84.7
76987;BME280;65922;50.086;8.598;2023-01-28T02:37:14;101640;;;1.7;84.8
76987;BME280;65922;50.086;8.598;2023-01-28T02:38:14;101640;;;1.7;84.6
76987;BME280;65922;50.086;8.598;2023-01-28T02:39:15;101650;;;1.7;84.6
76987;BME280;65922;50.086;8.598;2023-01-28T02:40:15;101650;;;1.7;84.9
76987;BME280;65922;50.086;8.598;2023-01-28T02:41:15;101640;;;1.7;84.9
76987;BME280;65922;50.086;8.598;2023-01-28T02:42:15;101640;;;1.7;84.9
76987;BME280;65922;50.086;8.598;2023-01-28T02:43:13;101650;;;1.7;85.1
76987;BME280;65922;50.086;8.598;2023-01-28T02:44:13;101650;;;1.7;85
76987;BME280;65922;50.086;8.598;2023-01-28T02:45:14;101650;;;1.7;84.9
76987;BME280;65922;50.086;8.598;2023-01-28T02:46:17;101650;;;1.7;85.1
76987;BME280;65922;50.086;8.598;2023-01-28T02:47:14;101640;;;1.7;85
76987;BME280;65922;50.086;8.598;2023-01-28T02:48:14;101650;;;1.6;85
76987;BME280;65922;50.086;8.598;2023-01-28T02:49:15;101650;;;1.7;85.2
76987;BME280;65922;50.086;8.598;2023-01-28T02:50:14;101650;;;1.7;85
76987;BME280;65922;50.086;8.598;2023-01-28T02:51:15;101650;;;1.7;85.2
76987;BME280;65922;50.086;8.598;2023-01-28T02:52:17;101650;;;1.7;85.1
76987;BME280;65922;50.086;8.598;2023-01-28T02:53:16;101650;;;1.7;84.8
76987;BME280;65922;50.086;8.598;2023-01-28T02:54:16;101650;;;1.7;84.9
76987;BME280;65922;50.086;8.598;2023-01-28T02:55:15;101660;;;1.7;85
76987;BME280;65922;50.086;8.598;2023-01-28T02:56:17;101650;;;1.7;85
76987;BME280;65922;50.086;8.598;2023-01-28T02:57:17;101660;;;1.7;85.1
76987;BME280;65922;50.086;8.598;2023-01-28T02:58:15;101660;;;1.7;85.1
76987;BME280;65922;50.086;8.598;2023-01-28T02:59:16;101660;;;1.7;85.2
76987;BME280;65922;50.086;8.598;2023-01-28T03:00:15;101650;;;1.6;85.3
76987;BME280;65922;50.086;8.598;2023-01-28T03:01:15;101660;;;1.6;85.6
76987;BME280;65922;50.086;8.598;2023-01-28T03:02:15;101660;;;1.6;85.5
76987;BME280;65922;50.086;8.598;2023-01-28T03:03:14;101660;;;1.6;85.4
76987;BME280;65922;50.086;8.598;2023-01-28T03:04:15;101660;;;1.6;85.5
76987;BME280;65922;50.086;8.598;2023-01-28T03:05:15;101650;;;1.7;85.5
76987;BME280;65922;50.086;8.598;2023-01-28T03:06:14;101670;;;1.6;85.6
76987;BME280;65922;50.086;8.598;2023-01-28T03:07:14;101660;;;1.7;85.6
76987;BME280;65922;50.086;8.598;2023-01-28T03:08:13;101660;;;1.6;85.7
76987;BME280;65922;50.086;8.598;2023-01-28T03:09:13;101660;;;1.6;85.9
76987;BME280;65922;50.086;8.598;2023-01-28T03:10:15;101650;;;1.6;86
76987;BME280;65922;50.086;8.598;2023-01-28T03:11:13;101670;;;1.6;86.3
76987;BME280;65922;50.086;8.598;2023-01-28T03:12:15;101660;;;1.5;86.6
76987;BME280;65922;50.086;8.598;2023-01-28T03:13:13;101660;;;1.6;86.5
76987;BME280;65922;50.086;8.598;2023-01-28T03:14:13;101670;;;1.6;86.4
76987;BME280;65922;50.086;8.598;2023-01-28T03:15:14;101650;;;1.6;86.4
76987;BME280;65922;50.086;8.598;2023-01-28T03:16:13;101670;;;1.6;86.3
76987;BME280;65922;50.086;8.598;2023-01-28T03:17:14;101670;;;1.6;86.5
76987;BME280;65922;50.086;8.598;2023-01-28T03:18:14;101670;;;1.6;86.3
76987;BME280;65922;50.086;8.598;2023-01-28T03:19:13;101670;;;1.6;86.4
76987;BME280;65922;50.086;8.598;2023-01-28T03:20:14;101680;;;1.6;86.4
76987;BME280;65922;50.086;8.598;2023-01-28T03:21:14;101670;;;1.6;86.5
76987;BME280;65922;50.086;8.598;2023-01-28T03:22:13;101670;;;1.6;86.6
76987;BME280;65922;50.086;8.598;2023-01-28T03:23:15;101680;;;1.5;86.9
76987;BME280;65922;50.086;8.598;2023-01-28T03:24:14;101680;;;1.5;87.1
76987;BME280;65922;50.086;8.598;2023-01-28T03:25:13;101680;;;1.6;86.7
76987;BME280;65922;50.086;8.598;2023-01-28T03:26:13;101680;;;1.6;86.8
76987;BME280;65922;50.086;8.598;2023-01-28T03:27:15;101690;;;1.6;86.7
76987;BME280;65922;50.086;8.598;2023-01-28T03:28:15;101680;;;1.6;86.4
76987;BME280;65922;50.086;8.598;2023-01-28T03:29:13;101680;;;1.6;86.4
76987;BME280;65922;50.086;8.598;2023-01-28T03:30:14;101680;;;1.6;86.6
76987;BME280;65922;50.086;8.598;2023-01-28T03:31:14;101680;;;1.6;86.6
76987;BME280;65922;50.086;8.598;2023-01-28T03:32:13;101680;;;1.6;86.2
76987;BME280;65922;50.086;8.598;2023-01-28T03:33:14;101680;;;1.6;86
76987;BME280;65922;50.086;8.598;2023-01-28T03:34:13;101690;;;1.6;86.1
76987;BME280;65922;50.086;8.598;2023-01-28T03:35:14;101680;;;1.6;86.2
76987;BME280;65922;50.086;8.598;2023-01-28T03:36:13;101690;;;1.6;86.2
76987;BME280;65922;50.086;8.598;2023-01-28T03:37:13;101690;;;1.6;86.2
76987;BME280;65922;50.086;8.598;2023-01-28T03:38:14;101680;;;1.6;86
76987;BME280;65922;50.086;8.598;2023-01-28T03:39:14;101690;;;1.6;86
76987;BME280;65922;50.086;8.598;2023-01-28T03:40:13;101690;;;1.6;85.9
76987;BME280;65922;50.086;8.598;2023-01-28T03:41:18;101700;;;1.6;85.6
76987;BME280;65922;50.086;8.598;2023-01-28T03:42:14;101690;;;1.7;85.5
76987;BME280;65922;50.086;8.598;2023-01-28T03:43:13;101690;;;1.6;85.4
76987;BME280;65922;50.086;8.598;2023-01-28T03:44:13;101690;;;1.6;85.6
76987;BME280;65922;50.086;8.598;2023-01-28T03:45:13;101690;;;1.6;85.4
76987;BME280;65922;50.086;8.598;2023-01-28T03:46:13;101690;;;1.6;85.4
76987;BME280;65922;50.086;8.598;2023-01-28T03:47:14;101690;;;1.6;85.8
76987;BME280;65922;50.086;8.598;2023-01-28T03:48:13;101690;;;1.6;85.9
76987;BME280;65922;50.086;8.598;2023-01-28T03:49:14;101690;;;1.6;85.6
76987;BME280;65922;50.086;8.598;2023-01-28T03:50:14;101690;;;1.6;85.2
76987;BME280;65922;50.086;8.598;2023-01-28T03:51:13;101700;;;1.6;85.2
76987;BME280;65922;50.086;8.598;2023-01-28T03:52:14;101690;;;1.6;85.3
76987;BME280;65922;50.086;8.598;2023-01-28T03:53:14;101690;;;1.6;85.4
76987;BME280;65922;50.086;8.598;2023-01-28T03:54:13;101700;;;1.6;85.4
76987;BME280;65922;50.086;8.598;2023-01-28T03:55:13;101690;;;1.6;85.5
76987;BME280;65922;50.086;8.598;2023-01-28T03:56:13;101700;;;1.6;85.6
76987;BME280;65922;50.086;8.598;2023-01-28T03:57:13;101690;;;1.6;85.3
76987;BME280;65922;50.086;8.598;2023-01-28T03:58:14;101690;;;1.6;85.5
76987;BME280;65922;50.086;8.598;2023-01-28T03:59:13;101700;;;1.6;85.8
76987;BME280;65922;50.086;8.598;2023-01-28T04:00:14;101690;;;1.6;85.7
76987;BME280;65922;50.086;8.598;2023-01-28T04:01:13;101700;;;1.7;84.9
76987;BME280;65922;50.086;8.598;2023-01-28T04:02:14;101700;;;1.7;84.6
76987;BME280;65922;50.086;8.598;2023-01-28T04:03:14;101690;;;1.7;84.6
76987;BME280;65922;50.086;8.598;2023-01-28T04:04:13;101690;;;1.7;84.5
76987;BME280;65922;50.086;8.598;2023-01-28T04:05:13;101690;;;1.7;84.1
76987;BME280;65922;50.086;8.598;2023-01-28T04:06:13;101690;;;1.7;83.7
76987;BME280;65922;50.086;8.598;2023-01-28T04:07:13;101700;;;1.7;83.8
76987;BME280;65922;50.086;8.598;2023-01-28T04:08:13;101700;;;1.7;84.5
76987;BME280;65922;50.086;8.598;2023-01-28T04:09:13;101690;;;1.7;84.3
76987;BME280;65922;50.086;8.598;2023-01-28T04:10:14;101690;;;1.6;84.6
76987;BME280;65922;50.086;8.598;2023-01-28T04:11:13;101700;;;1.6;84.5
76987;BME280;65922;50.086;8.598;2023-01-28T04:12:13;101700;;;1.6;84.1
76987;BME280;65922;50.086;8.598;2023-01-28T04:13:13;101700;;;1.7;83.7
76987;BME280;65922;50.086;8.598;2023-01-28T04:14:13;101700;;;1.7;83.6
76987;BME280;65922;50.086;8.598;2023-01-28T04:15:13;101690;;;1.7;83.6
76987;BME280;65922;50.086;8.598;2023-01-28T04:16:14;101700;;;1.7;83.6
76987;BME280;65922;50.086;8.598;2023-01-28T04:17:13;101700;;;1.7;83.5
76987;BME280;65922;50.086;8.598;2023-01-28T04:18:14;101700;;;1.7;83.5
76987;BME280;65922;50.086;8.598;2023-01-28T04:19:13;101700;;;1.7;83.4
76987;BME280;65922;50.086;8.598;2023-01-28T04:20:14;101700;;;1.7;83.6
76987;BME280;65922;50.086;8.598;2023-01-28T04:21:13;101710;;;1.7;83.7
76987;BME280;65922;50.086;8.598;2023-01-28T04:22:13;101710;;;1.7;83.5
76987;BME280;65922;50.086;8.598;2023-01-28T04:23:13;101700;;;1.7;83.5
76987;BME280;65922;50.086;8.598;2023-01-28T04:24:14;101700;;;1.7;83.4
76987;BME280;65922;50.086;8.598;2023-01-28T04:25:13;101710;;;1.7;83.2
76987;BME280;65922;50.086;8.598;2023-01-28T04:26:13;101710;;;1.7;82.9
76987;BME280;65922;50.086;8.598;2023-01-28T04:27:13;101710;;;1.7;83.1
76987;BME280;65922;50.086;8.598;2023-01-28T04:28:13;101710;;;1.7;83.2
76987;BME280;65922;50.086;8.598;2023-01-28T04:29:13;101710;;;1.7;83.3
76987;BME280;65922;50.086;8.598;2023-01-28T04:30:14;101710;;;1.7;83.5
76987;BME280;65922;50.086;8.598;2023-01-28T04:31:13;101710;;;1.7;83.6
76987;BME280;65922;50.086;8.598;2023-01-28T04:32:13;101720;;;1.7;83.3
76987;BME280;65922;50.086;8.598;2023-01-28T04:33:13;101710;;;1.7;83.2
76987;BME280;65922;50.086;8.598;2023-01-28T04:34:13;101710;;;1.7;82.9
76987;BME280;65922;50.086;8.598;2023-01-28T04:35:13;101710;;;1.7;83.2
76987;BME280;65922;50.086;8.598;2023-01-28T04:36:13;101710;;;1.8;82
76987;BME280;65922;50.086;8.598;2023-01-28T04:37:13;101710;;;1.8;82.2
76987;BME280;65922;50.086;8.598;2023-01-28T04:38:13;101710;;;1.7;82.5
76987;BME280;65922;50.086;8.598;2023-01-28T04:39:13;101710;;;1.7;82.8
76987;BME280;65922;50.086;8.598;2023-01-28T04:40:13;101710;;;1.7;82.6
76987;BME280;65922;50.086;8.598;2023-01-28T04:41:13;101700;;;1.7;82.4
76987;BME280;65922;50.086;8.598;2023-01-28T04:42:14;101710;;;1.7;82.8
76987;BME280;65922;50.086;8.598;2023-01-28T04:43:13;101710;;;1.7;82.3
76987;BME280;65922;50.086;8.598;2023-01-28T04:44:13;101710;;;1.7;82.5
76987;BME280;65922;50.086;8.598;2023-01-28T04:45:13;101710;;;1.7;83.2
76987;BME280;65922;50.086;8.598;2023-01-28T04:46:13;101700;;;1.7;82.4
76987;BME280;65922;50.086;8.598;2023-01-28T04:47:13;101700;;;1.8;81.7
76987;BME280;65922;50.086;8.598;2023-01-28T04:48:13;101710;;;1.8;81.7
76987;BME280;65922;50.086;8.598;2023-01-28T04:49:13;101700;;;1.8;81.7
76987;BME280;65922;50.086;8.598;2023-01-28T04:50:14;101710;;;1.7;82
76987;BME280;65922;50.086;8.598;2023-01-28T04:51:13;101710;;;1.7;82.1
76987;BME280;65922;50.086;8.598;2023-01-28T04:52:13;101700;;;1.7;81.9
76987;BME280;65922;50.086;8.598;2023-01-28T04:53:13;101710;;;1.8;81.7
76987;BME280;65922;50.086;8.598;2023-01-28T04:54:13;101710;;;1.7;81.7
76987;BME280;65922;50.086;8.598;2023-01-28T04:55:13;101710;;;1.7;81.6
76987;BME280;65922;50.086;8.598;2023-01-28T04:56:13;101710;;;1.8;81.3
76987;BME280;65922;50.086;8.598;2023-01-28T04:57:13;101710;;;1.8;81.3
76987;BME280;65922;50.086;8.598;2023-01-28T04:58:13;101710;;;1.8;80.9
76987;BME280;65922;50.086;8.598;2023-01-28T04:59:13;101710;;;1.8;80.9
76987;BME280;65922;50.086;8.598;2023-01-28T05:00:14;101700;;;1.8;81.3
76987;BME280;65922;50.086;8.598;2023-01-28T05:01:13;101700;;;1.8;81.1
76987;BME280;65922;50.086;8.598;2023-01-28T05:02:13;101710;;;1.8;80.7
76987;BME280;65922;50.086;8.598;2023-01-28T05:03:13;101710;;;1.8;80.9
76987;BME280;65922;50.086;8.598;2023-01-28T05:04:14;101710;;;1.8;81
76987;BME280;65922;50.086;8.598;2023-01-28T05:05:13;101720;;;1.8;81.4
76987;BME280;65922;50.086;8.598;2023-01-28T05:06:13;101710;;;1.8;81.2
76987;BME280;65922;50.086;8.598;2023-01-28T05:07:13;101710;;;1.8;81.1
76987;BME280;65922;50.086;8.598;2023-01-28T05:08:13;101710;;;1.8;81.1
76987;BME280;65922;50.086;8.598;2023-01-28T05:09:13;101710;;;1.8;81.2
76987;BME280;65922;50.086;8.598;2023-01-28T05:10:14;101700;;;1.8;81.1
76987;BME280;65922;50.086;8.598;2023-01-28T05:11:13;101710;;;1.8;80.6
76987;BME280;65922;50.086;8.598;2023-01-28T05:12:13;101700;;;1.9;80.3
76987;BME280;65922;50.086;8.598;2023-01-28T05:13:13;101700;;;1.9;80.3
76987;BME280;65922;50.086;8.598;2023-01-28T05:14:13;101720;;;1.8;80.5
76987;BME280;65922;50.086;8.598;2023-01-28T05:15:13;101720;;;1.8;80.4
76987;BME280;65922;50.086;8.598;2023-01-28T05:16:13;101710;;;1.9;80.2
76987;BME280;65922;50.086;8.598;2023-01-28T05:17:13;101710;;;1.8;80.4
76987;BME280;65922;50.086;8.598;2023-01-28T05:18:13;101710;;;1.8;80.7
76987;BME280;65922;50.086;8.598;2023-01-28T05:19:13;101700;;;1.7;81.4
76987;BME280;65922;50.086;8.598;2023-01-28T05:20:14;101710;;;1.8;81
76987;BME280;65922;50.086;8.598;2023-01-28T05:21:13;101720;;;1.8;80.9
76987;BME280;65922;50.086;8.598;2023-01-28T05:22:13;101710;;;1.8;80.7
76987;BME280;65922;50.086;8.598;2023-01-28T05:23:13;101720;;;1.8;80.3
76987;BME280;65922;50.086;8.598;2023-01-28T05:24:13;101720;;;1.8;80
76987;BME280;65922;50.086;8.598;2023-01-28T05:25:13;101710;;;1.8;80.7
76987;BME280;65922;50.086;8.598;2023-01-28T05:26:13;101720;;;1.8;80.8
76987;BME280;65922;50.086;8.598;2023-01-28T05:27:13;101720;;;1.8;80.9
76987;BME280;65922;50.086;8.598;2023-01-28T05:28:13;101710;;;1.8;80.3
76987;BME280;65922;50.086;8.598;2023-01-28T05:29:14;101710;;;1.8;80.4
76987;BME280;65922;50.086;8.598;2023-01-28T05:30:13;101720;;;1.8;80.8
76987;BME280;65922;50.086;8.598;2023-01-28T05:31:14;101720;;;1.8;80.7
76987;BME280;65922;50.086;8.598;2023-01-28T05:32:13;101720;;;1.8;80.1
76987;BME280;65922;50.086;8.598;2023-01-28T05:33:13;101720;;;1.8;80.3
76987;BME280;65922;50.086;8.598;2023-01-28T05:34:13;101720;;;1.8;79.8
76987;BME280;65922;50.086;8.598;2023-01-28T05:35:13;101720;;;1.8;79.8
76987;BME280;65922;50.086;8.598;2023-01-28T05:36:13;101720;;;1.8;79.7
76987;BME280;65922;50.086;8.598;2023-01-28T05:37:13;101730;;;1.8;80.1
76987;BME280;65922;50.086;8.598;2023-01-28T05:38:13;101730;;;1.8;80.1
76987;BME280;65922;50.086;8.598;2023-01-28T05:39:13;101720;;;1.8;80.2
76987;BME280;65922;50.086;8.598;2023-01-28T05:40:13;101730;;;1.7;80.2
76987;BME280;65922;50.086;8.598;2023-01-28T05:41:13;101720;;;1.8;79.9
76987;BME280;65922;50.086;8.598;2023-01-28T05:42:14;101740;;;1.8;79.8